Time;durP1;ratioP1;P1;durP2;ratioP2;P2;SDS_P1;SDS_P2;PMS_P1;PMS_P2;Temp;Humidity;BMP_temperature;BMP_pressure;BME280_temperature;BME280_humidity;BME280_pressure;Samples;Min_cycle;Max_cycle;Signal;HPM_P1;HPM_P2
2022/09/09 00:01:55;;;;;;;8.27;4.93;;;;;;;13.04;60.27;100189.14;1710386;81;21420;-62
2022/09/09 00:04:33;;;;;;;6.83;4.62;;;;;;;13.01;60.34;100191.44;1720251;81;21804;-62
2022/09/09 00:07:23;;;;;;;7.05;4.53;;;;;;;13.03;60.33;100194.02;1719129;81;20986;-61
2022/09/09 00:10:23;;;;;;;7.58;4.60;;;;;;;12.98;60.33;100192.06;1718137;81;21034;-61
2022/09/09 00:12:59;;;;;;;7.35;4.65;;;;;;;12.92;60.73;100193.19;1724474;80;21506;-61
2022/09/09 00:15:35;;;;;;;8.88;4.62;;;;;;;12.92;60.67;100188.35;1719060;81;21542;-60
2022/09/09 00:18:34;;;;;;;10.48;5.10;;;;;;;12.88;60.43;100194.22;1680365;81;21535;-61
2022/09/09 00:21:15;;;;;;;5.72;4.35;;;;;;;12.87;60.81;100194.31;1707558;81;21467;-60
2022/09/09 00:24:13;;;;;;;6.28;4.40;;;;;;;12.84;61.25;100203.20;1715566;81;21566;-61
2022/09/09 00:26:45;;;;;;;7.37;4.90;;;;;;;12.82;61.09;100211.18;1627737;86;21607;-61
2022/09/09 00:29:35;;;;;;;5.50;3.90;;;;;;;12.80;61.20;100213.50;1618421;87;21594;-61
2022/09/09 00:32:17;;;;;;;5.92;4.65;;;;;;;12.79;61.26;100208.69;1627802;87;21889;-60
2022/09/09 00:34:55;;;;;;;5.65;4.50;;;;;;;12.73;61.63;100222.12;1628069;86;21590;-60
2022/09/09 00:37:23;;;;;;;5.92;4.47;;;;;;;12.72;61.79;100227.02;1616266;86;21565;-61
2022/09/09 00:39:51;;;;;;;7.62;4.50;;;;;;;12.67;62.27;100230.31;1620583;86;21564;-60
2022/09/09 00:42:27;;;;;;;6.65;4.12;;;;;;;12.65;62.12;100233.47;1627773;86;21538;-60
2022/09/09 00:45:12;;;;;;;5.83;4.50;;;;;;;12.68;62.15;100232.47;1628856;86;22076;-60
2022/09/09 00:47:44;;;;;;;6.00;4.45;;;;;;;12.66;62.33;100241.80;1623842;86;21622;-60
2022/09/09 00:53:25;;;;;;;6.72;3.95;;;;;;;12.02;68.26;100238.21;1786414;79;23167;-60
2022/09/09 00:56:04;;;;;;;5.58;4.20;;;;;;;12.66;62.56;100241.80;1759931;80;22546;-61
2022/09/09 00:58:31;;;;;;;4.65;3.83;;;;;;;12.67;62.23;100244.82;1771004;80;21801;-60
2022/09/09 01:01:06;;;;;;;6.62;4.92;;;;;;;12.60;62.33;100245.98;1774239;80;21454;-61
2022/09/09 01:03:45;;;;;;;8.03;4.30;;;;;;;12.56;62.58;100254.95;1761368;80;21572;-61
2022/09/09 01:06:33;;;;;;;6.97;4.28;;;;;;;12.50;63.11;100258.70;1762741;80;20994;-63
2022/09/09 01:09:24;;;;;;;4.75;3.95;;;;;;;12.45;63.19;100251.00;1755877;80;21478;-63
2022/09/09 01:12:27;;;;;;;5.97;4.35;;;;;;;12.44;63.39;100255.86;1765066;80;21936;-61
2022/09/09 01:15:11;;;;;;;5.45;4.00;;;;;;;12.45;63.27;100256.70;1717358;80;21506;-62
2022/09/09 01:18:09;;;;;;;5.40;4.37;;;;;;;12.41;63.41;100256.00;1771787;80;21033;-60
2022/09/09 01:20:48;;;;;;;;;;;;;;;12.42;64.15;100252.90;1772254;80;21498;-60
2022/09/09 01:23:29;;;;;;;5.08;3.72;;;;;;;12.38;67.92;100260.07;1760244;80;20464;-61
2022/09/09 01:26:32;;;;;;;4.87;3.72;;;;;;;12.42;67.42;100256.85;1755198;80;21837;-60
2022/09/09 01:29:00;;;;;;;4.97;3.75;;;;;;;12.45;66.51;100253.63;1756683;80;21523;-60
2022/09/09 01:31:41;;;;;;;4.85;4.05;;;;;;;12.39;65.93;100252.54;1758709;79;21124;-61
2022/09/09 01:34:11;;;;;;;5.22;3.80;;;;;;;12.39;65.78;100246.41;1752656;80;21521;-60
2022/09/09 01:36:47;;;;;;;5.00;4.10;;;;;;;12.37;65.48;100249.58;1766988;80;21509;-62
2022/09/09 01:39:14;;;;;;;6.72;4.42;;;;;;;12.34;64.69;100245.30;1742281;80;21846;-59
2022/09/09 01:41:41;;;;;;;5.12;3.77;;;;;;;12.31;64.54;100246.73;1765790;80;21513;-59
2022/09/09 01:44:10;;;;;;;5.97;4.35;;;;;;;12.27;64.71;100249.09;1769168;80;21415;-60
2022/09/09 01:46:38;;;;;;;6.67;4.60;;;;;;;12.20;64.85;100247.63;1764324;80;21099;-61
2022/09/09 01:49:07;;;;;;;5.95;3.72;;;;;;;12.15;64.82;100237.71;1769057;80;21403;-61
2022/09/09 01:51:35;;;;;;;8.63;3.90;;;;;;;12.11;64.70;100240.08;1773725;80;21783;-61
2022/09/09 01:54:03;;;;;;;7.65;4.45;;;;;;;12.05;65.00;100240.73;1768081;80;21582;-61
2022/09/09 01:56:49;;;;;;;7.30;3.98;;;;;;;12.03;64.86;100234.64;1749827;80;21107;-60
2022/09/09 01:59:49;;;;;;;4.75;4.08;;;;;;;12.00;65.20;100236.09;1753102;80;21415;-59
2022/09/09 02:02:34;;;;;;;5.62;3.80;;;;;;;11.92;64.50;100234.20;1744792;80;21399;-60
2022/09/09 02:05:37;;;;;;;4.62;3.75;;;;;;;11.82;65.29;100232.36;1763298;80;22115;-60
2022/09/09 02:08:15;;;;;;;6.05;4.40;;;;;;;11.81;65.69;100228.02;1755261;80;21546;-60
2022/09/09 02:10:58;;;;;;;6.25;4.05;;;;;;;11.79;65.48;100226.34;1766356;80;21482;-60
2022/09/09 02:13:30;;;;;;;6.58;4.40;;;;;;;11.75;65.52;100229.55;1739730;80;21424;-60
2022/09/09 02:16:11;;;;;;;4.80;3.70;;;;;;;11.72;65.78;100223.11;1761807;80;21498;-59
2022/09/09 02:18:55;;;;;;;4.25;3.65;;;;;;;11.71;67.63;100221.38;1757154;80;21826;-59
2022/09/09 02:21:23;;;;;;;4.75;3.75;;;;;;;11.73;68.75;100220.85;1755471;80;21575;-60
2022/09/09 02:23:51;;;;;;;6.50;4.10;;;;;;;11.76;69.03;100223.37;1749243;80;21456;-61
2022/09/09 02:26:21;;;;;;;4.83;3.55;;;;;;;11.71;68.54;100227.95;1761950;80;21415;-60
2022/09/09 02:28:50;;;;;;;5.33;3.55;;;;;;;11.64;68.88;100227.35;1761448;80;21485;-60
2022/09/09 02:31:19;;;;;;;5.12;3.98;;;;;;;11.64;68.67;100228.66;1751856;80;21753;-60
2022/09/09 02:33:57;;;;;;;5.03;3.90;;;;;;;11.65;68.65;100229.05;1767371;80;20998;-60
2022/09/09 02:36:25;;;;;;;4.40;3.05;;;;;;;11.69;67.93;100229.33;1746626;80;25382;-60
2022/09/09 02:38:53;;;;;;;4.30;3.50;;;;;;;11.68;68.11;100226.78;1765263;80;21525;-60
2022/09/09 02:41:25;;;;;;;4.70;4.17;;;;;;;11.71;67.65;100229.27;1749408;80;21549;-60
2022/09/09 02:43:52;;;;;;;4.17;3.75;;;;;;;11.67;67.60;100224.58;1757285;80;21826;-60
2022/09/09 02:47:02;;;;;;;5.00;3.75;;;;;;;11.66;67.58;100224.20;1755328;80;21471;-60
2022/09/09 02:49:59;;;;;;;4.42;3.62;;;;;;;11.66;67.74;100223.34;1717878;82;21521;-60
2022/09/09 02:52:47;;;;;;;5.67;4.10;;;;;;;11.65;66.98;100219.83;1758855;80;21014;-60
2022/09/09 02:55:48;;;;;;;4.47;3.67;;;;;;;11.60;67.55;100221.80;1757239;80;21604;-60
2022/09/09 02:58:17;;;;;;;4.65;3.40;;;;;;;11.60;66.87;100215.66;1755849;80;21820;-60
2022/09/09 03:00:49;;;;;;;3.92;3.52;;;;;;;11.59;67.16;100219.22;1752166;80;21471;-60
2022/09/09 03:03:17;;;;;;;4.85;3.37;;;;;;;11.58;67.85;100224.92;1759045;80;20975;-59
2022/09/09 03:05:45;;;;;;;3.98;2.90;;;;;;;11.59;69.36;100226.66;1759442;80;21474;-60
2022/09/09 03:08:12;;;;;;;6.28;3.67;;;;;;;11.61;69.54;100231.88;1763072;80;21399;-60
2022/09/09 03:10:41;;;;;;;3.80;3.25;;;;;;;11.63;69.53;100238.79;1754682;80;21066;-60
2022/09/09 03:13:08;;;;;;;4.58;3.47;;;;;;;11.62;69.45;100248.94;1745173;80;21104;-60
2022/09/09 03:15:37;;;;;;;3.72;3.15;;;;;;;11.65;68.84;100255.39;1755992;80;21468;-60
2022/09/09 03:18:05;;;;;;;4.00;3.60;;;;;;;11.58;68.39;100256.53;1761095;80;21475;-60
2022/09/09 03:20:33;;;;;;;4.20;3.55;;;;;;;11.50;68.16;100259.45;1760209;80;21581;-60
2022/09/09 03:23:02;;;;;;;5.97;3.20;;;;;;;11.38;68.33;100260.38;1759621;80;21509;-59
2022/09/09 03:25:28;;;;;;;5.83;3.83;;;;;;;11.32;68.75;100254.00;1759028;80;21411;-60
2022/09/09 03:27:55;;;;;;;5.67;3.80;;;;;;;11.29;69.21;100253.20;1757911;80;21044;-59
2022/09/09 03:30:23;;;;;;;5.33;3.62;;;;;;;11.32;69.35;100251.36;1756420;80;21571;-60
2022/09/09 03:32:50;;;;;;;4.28;3.37;;;;;;;11.31;69.39;100254.46;1756649;80;21459;-60
2022/09/09 03:35:17;;;;;;;5.17;3.65;;;;;;;11.31;69.62;100264.99;1763817;80;21996;-61
2022/09/09 03:37:44;;;;;;;4.55;3.40;;;;;;;11.33;70.10;100258.36;1759622;80;21014;-61
2022/09/09 03:40:11;;;;;;;;;;;;;;;11.33;71.29;100263.16;1764651;80;21573;-61
2022/09/09 03:42:39;;;;;;;4.90;3.35;;;;;;;11.32;74.10;100264.52;1751078;80;20189;-61
2022/09/09 03:45:08;;;;;;;3.62;3.27;;;;;;;11.29;71.79;100262.88;1758763;80;21549;-60
2022/09/09 03:47:38;;;;;;;4.67;3.00;;;;;;;11.31;71.68;100266.31;1755150;80;21808;-60
2022/09/09 03:50:08;;;;;;;6.22;3.83;;;;;;;11.29;71.53;100264.19;1758745;80;21490;-60
2022/09/09 03:52:40;;;;;;;5.08;3.08;;;;;;;11.30;71.67;100267.20;1762818;80;21483;-60
2022/09/09 03:55:09;;;;;;;3.60;3.22;;;;;;;11.36;71.79;100263.50;1755148;80;21426;-60
2022/09/09 03:57:37;;;;;;;;;;;;;;;11.41;71.67;100263.73;1755651;80;21482;-61
2022/09/09 04:00:05;;;;;;;5.05;3.17;;;;;;;11.41;74.13;100266.83;1758348;80;21923;-61
2022/09/09 04:02:34;;;;;;;3.08;2.77;;;;;;;11.43;71.76;100265.88;1744544;80;21515;-59
2022/09/09 04:05:01;;;;;;;4.15;3.10;;;;;;;11.49;70.97;100270.06;1755012;80;21880;-61
2022/09/09 04:07:29;;;;;;;4.12;2.75;;;;;;;11.50;70.04;100274.40;1757239;80;21450;-60
2022/09/09 04:09:57;;;;;;;4.55;3.05;;;;;;;11.50;69.83;100267.34;1762053;80;21511;-60
2022/09/09 04:12:24;;;;;;;5.87;3.53;;;;;;;11.50;69.67;100263.86;1760761;80;22035;-61
2022/09/09 04:14:51;;;;;;;4.20;3.70;;;;;;;11.53;69.42;100262.88;1749008;80;21733;-61
2022/09/09 04:17:18;;;;;;;3.72;3.08;;;;;;;11.55;69.23;100259.77;1761014;80;21581;-61
2022/09/09 04:19:45;;;;;;;4.03;3.37;;;;;;;11.55;68.81;100271.15;1749758;80;21094;-60
2022/09/09 04:22:12;;;;;;;3.42;2.90;;;;;;;11.55;68.88;100271.15;1757682;80;21525;-61
2022/09/09 04:24:38;;;;;;;5.92;3.22;;;;;;;11.56;68.77;100280.75;1751976;80;21498;-61
2022/09/09 04:27:05;;;;;;;5.65;3.42;;;;;;;11.57;69.25;100286.90;1767934;80;21489;-60
2022/09/09 04:29:33;;;;;;;5.08;3.52;;;;;;;11.63;69.72;100280.08;1763967;80;21549;-61
2022/09/09 04:32:00;;;;;;;5.12;3.10;;;;;;;11.69;69.90;100278.53;1767587;80;21478;-60
2022/09/09 04:34:27;;;;;;;4.27;2.97;;;;;;;11.71;70.54;100283.28;1739435;80;21523;-60
2022/09/09 04:36:54;;;;;;;4.22;3.20;;;;;;;11.77;70.00;100278.23;1761049;80;21838;-60
2022/09/09 04:39:21;;;;;;;4.17;2.85;;;;;;;11.76;69.75;100283.12;1747955;80;21526;-60
2022/09/09 04:41:49;;;;;;;4.95;3.25;;;;;;;11.77;70.20;100282.19;1760057;80;21588;-61
2022/09/09 04:44:16;;;;;;;3.60;3.00;;;;;;;11.83;70.13;100288.57;1758331;80;21923;-61
2022/09/09 04:46:42;;;;;;;4.40;3.60;;;;;;;11.87;69.57;100298.92;1753311;80;21053;-61
2022/09/09 04:49:10;;;;;;;3.08;2.77;;;;;;;11.96;69.04;100303.46;1759422;80;21508;-60
2022/09/09 04:51:37;;;;;;;6.53;3.15;;;;;;;12.05;68.34;100298.73;1761570;80;21688;-62
2022/09/09 04:54:05;;;;;;;4.67;3.42;;;;;;;12.15;68.15;100291.31;1752181;80;21478;-61
2022/09/09 04:56:32;;;;;;;3.20;2.90;;;;;;;12.29;67.55;100291.23;1753801;80;21555;-61
2022/09/09 04:58:59;;;;;;;4.50;3.50;;;;;;;12.40;67.35;100287.23;1740038;80;21506;-62
2022/09/09 05:01:28;;;;;;;3.90;3.02;;;;;;;12.52;66.92;100284.55;1742845;80;22122;-63
2022/09/09 05:03:56;;;;;;;4.72;3.17;;;;;;;12.61;66.14;100280.70;1752624;80;21008;-61
2022/09/09 05:06:23;;;;;;;6.62;3.52;;;;;;;12.69;65.90;100285.66;1743530;80;21569;-61
2022/09/09 05:08:52;;;;;;;5.08;3.10;;;;;;;12.81;65.60;100283.84;1751606;80;21468;-61
2022/09/09 05:11:27;;;;;;;7.85;3.27;;;;;;;12.92;65.50;100288.64;1752370;80;21613;-62
2022/09/09 05:13:57;;;;;;;6.12;3.42;;;;;;;13.01;65.22;100283.83;1762022;80;21658;-61
2022/09/09 05:16:25;;;;;;;4.42;3.10;;;;;;;13.11;64.60;100282.11;1755641;80;21542;-60
2022/09/09 05:18:52;;;;;;;3.75;3.27;;;;;;;13.19;64.33;100274.27;1763113;80;21007;-60
2022/09/09 05:21:21;;;;;;;3.98;3.52;;;;;;;13.27;64.11;100273.93;1756377;80;21431;-61
2022/09/09 05:23:47;;;;;;;3.55;2.90;;;;;;;13.33;63.91;100272.84;1744270;80;21586;-61
2022/09/09 05:26:16;;;;;;;3.58;3.22;;;;;;;13.41;63.74;100277.30;1750785;80;21756;-61
2022/09/09 05:28:43;;;;;;;3.90;3.12;;;;;;;13.50;63.62;100282.18;1748523;80;21060;-60
2022/09/09 05:31:14;;;;;;;3.95;2.92;;;;;;;13.61;63.38;100266.70;1753410;80;21467;-62
2022/09/09 05:33:41;;;;;;;6.83;3.47;;;;;;;13.71;62.96;100258.36;1748640;80;21786;-61
2022/09/09 05:36:13;;;;;;;3.95;2.87;;;;;;;13.86;62.33;100271.33;1752733;80;21392;-61
2022/09/09 05:38:41;;;;;;;3.83;3.02;;;;;;;13.95;62.10;100286.30;1748310;80;21888;-62
2022/09/09 05:41:10;;;;;;;7.53;3.42;;;;;;;14.07;61.78;100286.65;1749798;80;21550;-61
2022/09/09 05:43:39;;;;;;;3.85;3.00;;;;;;;14.14;61.34;100276.18;1755101;80;21604;-59
2022/09/09 05:46:07;;;;;;;4.12;2.90;;;;;;;14.20;61.14;100275.44;1750814;80;21450;-61
2022/09/09 05:48:39;;;;;;;6.00;3.02;;;;;;;14.27;60.69;100281.75;1743010;80;21579;-61
2022/09/09 05:51:11;;;;;;;4.22;3.20;;;;;;;14.25;60.64;100273.88;1749613;80;22056;-61
2022/09/09 05:53:38;;;;;;;3.35;2.80;;;;;;;14.28;60.75;100268.45;1756774;80;21588;-61
2022/09/09 05:56:12;;;;;;;3.50;3.15;;;;;;;14.31;60.63;100273.58;1765377;80;21676;-61
2022/09/09 05:58:39;;;;;;;3.20;2.83;;;;;;;14.36;60.95;100280.83;1720102;80;21578;-60
2022/09/09 06:01:08;;;;;;;;;;;;;;;14.41;60.42;100297.83;1761603;80;21464;-61
2022/09/09 06:03:39;;;;;;;2.92;2.42;;;;;;;14.43;59.79;100297.73;1746528;80;21827;-61
2022/09/09 06:06:10;;;;;;;2.50;2.30;;;;;;;14.40;60.18;100292.98;1752055;80;21522;-61
2022/09/09 06:08:39;;;;;;;3.50;3.00;;;;;;;14.50;59.83;100285.45;1754895;80;21612;-62
2022/09/09 06:11:19;;;;;;;4.55;2.90;;;;;;;14.62;59.52;100281.84;1761319;80;21585;-61
2022/09/09 06:13:45;;;;;;;4.50;3.10;;;;;;;14.72;59.47;100279.98;1746789;80;21510;-62
2022/09/09 06:16:17;;;;;;;3.65;2.67;;;;;;;14.88;58.77;100289.80;1761127;80;21795;-64
2022/09/09 06:18:44;;;;;;;4.78;3.85;;;;;;;14.95;58.18;100294.71;1746717;80;21628;-62
2022/09/09 06:21:18;;;;;;;2.90;2.70;;;;;;;15.01;57.42;100296.19;1759087;80;21584;-62
2022/09/09 06:23:45;;;;;;;2.30;2.10;;;;;;;15.04;57.46;100291.23;1753084;80;21451;-61
2022/09/09 06:26:19;;;;;;;4.85;3.15;;;;;;;15.18;57.10;100300.18;1757360;80;21486;-63
2022/09/09 06:28:47;;;;;;;3.58;2.42;;;;;;;15.32;56.72;100299.45;1756569;80;21927;-63
2022/09/09 06:31:23;;;;;;;5.40;3.12;;;;;;;15.48;56.41;100286.72;1757040;80;21506;-61
2022/09/09 06:33:51;;;;;;;3.98;2.87;;;;;;;15.62;56.31;100293.96;1702751;83;21543;-60
2022/09/09 06:36:19;;;;;;;;;;;;;;;15.74;55.80;100291.52;1763153;80;21612;-63
2022/09/09 06:38:47;;;;;;;3.47;2.98;;;;;;;15.78;54.28;100286.91;1763446;80;20500;-61
2022/09/09 06:41:15;;;;;;;;;;;;;;;15.76;55.09;100288.34;1758910;80;21859;-62
2022/09/09 06:43:42;;;;;;;2.50;2.30;;;;;;;15.84;53.98;100273.34;1767663;80;20428;-64
2022/09/09 06:46:18;;;;;;;4.75;2.62;;;;;;;15.86;54.63;100279.41;1712837;82;21554;-62
2022/09/09 06:48:45;;;;;;;3.37;2.40;;;;;;;15.97;54.41;100278.80;1758615;80;21548;-64
2022/09/09 06:51:23;;;;;;;2.12;1.92;;;;;;;16.10;54.00;100279.83;1760692;80;21511;-61
2022/09/09 06:53:51;;;;;;;3.10;2.65;;;;;;;16.29;53.58;100281.01;1751411;80;21739;-61
2022/09/09 06:56:32;;;;;;;2.83;2.50;;;;;;;16.46;52.84;100281.82;1723583;82;21057;-60
2022/09/09 06:59:03;;;;;;;3.00;2.55;;;;;;;16.61;52.55;100280.94;1731285;82;21621;-60
2022/09/09 07:01:36;;;;;;;4.25;2.08;;;;;;;16.72;52.36;100278.52;1731756;81;21605;-61
2022/09/09 07:04:07;;;;;;;2.08;1.85;;;;;;;16.81;51.65;100274.95;1731497;81;21609;-61
2022/09/09 07:06:45;;;;;;;4.35;2.30;;;;;;;16.86;51.48;100282.22;1724970;81;21743;-62
2022/09/09 07:09:16;;;;;;;3.67;2.30;;;;;;;16.99;51.22;100277.02;1728959;81;21057;-61
2022/09/09 07:11:50;;;;;;;4.47;2.15;;;;;;;17.11;50.87;100278.47;1725588;81;21598;-62
2022/09/09 07:14:18;;;;;;;2.40;2.20;;;;;;;17.27;50.53;100285.06;1723148;81;21097;-62
2022/09/09 07:16:47;;;;;;;2.52;2.33;;;;;;;17.42;50.24;100284.61;1725718;81;21617;-62
2022/09/09 07:19:15;;;;;;;2.10;1.90;;;;;;;17.58;49.60;100292.97;1729979;80;21858;-61
2022/09/09 07:21:42;;;;;;;4.40;2.52;;;;;;;17.60;49.27;100288.41;1730075;81;21550;-64
2022/09/09 07:24:10;;;;;;;1.70;1.57;;;;;;;17.60;49.11;100288.41;1728982;81;21498;-62
2022/09/09 07:26:39;;;;;;;2.33;2.10;;;;;;;17.62;49.19;100290.49;1723362;81;21589;-62
2022/09/09 07:29:06;;;;;;;2.20;2.00;;;;;;;17.60;49.07;100288.41;1729290;81;27012;-62
2022/09/09 07:31:36;;;;;;;5.10;1.87;;;;;;;17.54;49.04;100287.44;1724306;82;21835;-62
2022/09/09 07:34:04;;;;;;;1.95;1.77;;;;;;;17.55;49.07;100293.14;1726916;81;21631;-62
2022/09/09 07:36:37;;;;;;;2.60;2.17;;;;;;;17.63;48.93;100293.52;1718899;81;21510;-63
2022/09/09 07:39:10;;;;;;;2.27;2.00;;;;;;;17.72;48.74;100290.28;1728175;81;21561;-62
2022/09/09 07:41:43;;;;;;;2.33;1.98;;;;;;;17.85;48.65;100293.08;1726837;81;21707;-62
2022/09/09 07:44:16;;;;;;;4.92;1.65;;;;;;;17.96;48.17;100302.56;1733041;81;21774;-63
2022/09/09 07:46:45;;;;;;;1.98;1.60;;;;;;;18.08;47.69;100294.27;1727844;81;21665;-63
2022/09/09 07:49:14;;;;;;;2.92;1.80;;;;;;;18.20;47.21;100291.33;1728672;81;21005;-63
2022/09/09 07:51:43;;;;;;;2.25;1.60;;;;;;;18.34;46.64;100287.27;1723642;81;21558;-66
2022/09/09 07:54:13;;;;;;;1.95;1.70;;;;;;;18.46;46.21;100289.63;1747047;80;21505;-65
2022/09/09 07:56:42;;;;;;;1.92;1.30;;;;;;;18.53;45.85;100286.92;1767253;80;21776;-65
2022/09/09 07:59:11;;;;;;;3.75;1.90;;;;;;;18.58;45.77;100291.48;1757340;80;21418;-63
2022/09/09 08:01:46;;;;;;;1.55;1.45;;;;;;;18.70;45.57;100299.61;1756783;80;21121;-63
2022/09/09 08:04:18;;;;;;;1.70;1.37;;;;;;;18.83;45.10;100295.20;1766617;80;21431;-64
2022/09/09 08:06:50;;;;;;;1.67;1.50;;;;;;;18.94;44.83;100305.15;1762428;80;21530;-63
2022/09/09 08:09:18;;;;;;;1.40;1.30;;;;;;;18.96;44.52;100292.09;1770034;80;21853;-64
2022/09/09 08:11:46;;;;;;;3.45;1.62;;;;;;;18.99;43.91;100295.89;1757430;80;21466;-64
2022/09/09 08:14:14;;;;;;;2.25;1.80;;;;;;;18.99;43.70;100296.38;1761679;80;21672;-64
2022/09/09 08:16:44;;;;;;;2.52;1.50;;;;;;;19.00;43.48;100286.92;1756774;80;21537;-66
2022/09/09 08:19:11;;;;;;;3.45;2.25;;;;;;;19.05;43.13;100288.80;1758322;80;21036;-64
2022/09/09 08:21:39;;;;;;;2.98;1.40;;;;;;;19.02;42.90;100285.48;1754174;80;22005;-64
2022/09/09 08:24:07;;;;;;;;;;;;;;;19.09;42.77;100284.61;1768149;80;21490;-64
2022/09/09 08:26:39;;;;;;;3.72;1.22;;;;;;;19.28;41.83;100280.20;1757212;80;20138;-65
2022/09/09 08:29:07;;;;;;;1.82;1.15;;;;;;;19.37;42.21;100280.41;1764202;80;21454;-65
2022/09/09 08:31:39;;;;;;;1.52;1.20;;;;;;;19.49;41.64;100276.02;1761936;80;20993;-66
2022/09/09 08:34:07;;;;;;;3.00;1.25;;;;;;;19.58;41.31;100275.88;1761244;80;21538;-65
2022/09/09 08:36:42;;;;;;;1.57;1.47;;;;;;;19.67;41.11;100271.22;1756188;80;21518;-64
2022/09/09 08:39:10;;;;;;;1.35;1.22;;;;;;;19.74;40.77;100278.33;1717616;82;21696;-64
2022/09/09 08:42:03;;;;;;;1.20;0.95;;;;;;;19.76;40.35;100272.39;1700279;83;22004;-63
2022/09/09 08:44:57;;;;;;;1.85;1.10;;;;;;;19.77;40.27;100269.62;1730357;82;21570;-65
2022/09/09 08:48:11;;;;;;;1.27;1.17;;;;;;;19.87;39.92;100255.14;1689917;82;21519;-64
2022/09/09 08:50:41;;;;;;;1.35;1.10;;;;;;;19.97;39.53;100256.69;1725063;82;21092;-66
2022/09/09 08:53:20;;;;;;;1.30;1.20;;;;;;;20.11;39.49;100246.33;1704057;82;21505;-65
2022/09/09 08:55:51;;;;;;;;;;;;;;;20.11;39.49;100246.33;1675952;83;21482;-65
2022/09/09 08:58:29;;;;;;;1.75;1.10;;;;;;;20.26;37.99;100253.70;1667721;83;20459;-66
2022/09/09 09:01:28;;;;;;;;;;;;;;;20.36;38.66;100244.03;1735120;80;21933;-66
2022/09/09 09:04:31;;;;;;;1.25;0.90;;;;;;;20.50;37.75;100241.20;1731472;80;20499;-65
2022/09/09 09:07:20;;;;;;;2.70;0.90;;;;;;;20.52;38.15;100239.75;1722844;80;21471;-65
2022/09/09 09:10:22;;;;;;;1.40;1.00;;;;;;;20.52;37.46;100240.59;1731212;80;21500;-66
2022/09/09 09:12:50;;;;;;;1.05;0.95;;;;;;;20.54;37.51;100242.66;1740686;80;21428;-67
2022/09/09 09:15:23;;;;;;;1.15;1.00;;;;;;;20.62;37.30;100240.78;1735633;80;21909;-70
2022/09/09 09:17:51;;;;;;;1.22;1.00;;;;;;;20.76;37.14;100242.43;1725206;80;21608;-67
2022/09/09 09:20:26;;;;;;;1.27;1.17;;;;;;;20.90;36.91;100243.55;1736412;80;21457;-66
2022/09/09 09:22:53;;;;;;;1.45;1.35;;;;;;;20.99;36.61;100234.83;1735728;80;21530;-66
2022/09/09 09:25:34;;;;;;;1.45;1.25;;;;;;;21.11;36.49;100234.84;1704058;82;20924;-66
2022/09/09 09:28:24;;;;;;;1.15;1.02;;;;;;;21.23;36.41;100239.72;1733445;80;21818;-67
2022/09/09 09:31:00;;;;;;;1.90;1.20;;;;;;;21.32;35.90;100234.53;1733735;80;21472;-67
2022/09/09 09:33:49;;;;;;;3.90;1.20;;;;;;;21.35;35.74;100234.76;1702419;80;21519;-65
2022/09/09 09:36:17;;;;;;;1.20;1.10;;;;;;;21.42;35.45;100235.98;1736909;80;21649;-65
2022/09/09 09:39:00;;;;;;;2.40;1.32;;;;;;;21.49;35.13;100240.37;1743553;80;21697;-64
2022/09/09 09:41:35;;;;;;;3.62;1.22;;;;;;;21.51;34.83;100231.28;1736962;80;21436;-64
2022/09/09 09:44:04;;;;;;;0.78;0.78;;;;;;;21.54;34.84;100226.16;1733263;81;21634;-63
2022/09/09 09:46:31;;;;;;;1.60;1.20;;;;;;;21.50;35.00;100218.86;1738737;80;21437;-63
2022/09/09 09:49:05;;;;;;;0.98;0.88;;;;;;;21.54;34.84;100222.14;1728808;80;21485;-63
2022/09/09 09:51:33;;;;;;;1.67;1.12;;;;;;;21.52;34.79;100216.07;1731922;80;21556;-64
2022/09/09 09:54:24;;;;;;;0.93;0.88;;;;;;;21.49;34.75;100215.84;1719125;80;21805;-64
2022/09/09 09:56:52;;;;;;;1.20;1.00;;;;;;;21.48;34.72;100221.31;1747086;80;21399;-62
2022/09/09 09:59:31;;;;;;;0.97;0.90;;;;;;;21.38;34.74;100208.62;1748066;80;21574;-63
2022/09/09 10:02:20;;;;;;;1.57;1.20;;;;;;;21.43;34.66;100216.77;1687490;82;21635;-64
2022/09/09 10:04:51;;;;;;;1.00;1.00;;;;;;;21.47;34.27;100219.09;1700767;82;21538;-62
2022/09/09 10:07:21;;;;;;;0.80;0.80;;;;;;;21.53;33.97;100223.11;1738821;80;21846;-64
2022/09/09 10:09:56;;;;;;;1.60;0.88;;;;;;;21.59;33.89;100217.29;1756516;80;21557;-62
2022/09/09 10:12:45;;;;;;;3.55;1.00;;;;;;;21.67;33.72;100216.18;1761064;80;21677;-63
2022/09/09 10:15:31;;;;;;;;;;;;;;;21.71;33.63;100221.64;1764173;80;21064;-64
2022/09/09 10:18:41;;;;;;;1.12;1.02;;;;;;;21.77;32.06;100224.31;1752685;80;20464;-66
2022/09/09 10:21:33;;;;;;;0.80;0.80;;;;;;;21.74;33.81;100224.58;1696587;82;22050;-65
2022/09/09 10:24:28;;;;;;;2.33;1.05;;;;;;;21.83;33.36;100222.97;1758309;80;21430;-66
2022/09/09 10:27:12;;;;;;;2.47;0.90;;;;;;;21.83;33.26;100224.30;1754999;80;21597;-65
2022/09/09 10:29:59;;;;;;;1.20;1.10;;;;;;;21.81;33.42;100213.72;1755846;80;21533;-64
2022/09/09 10:32:52;;;;;;;1.00;0.70;;;;;;;21.95;32.95;100220.15;1757950;80;21525;-65
2022/09/09 10:35:44;;;;;;;1.85;1.10;;;;;;;21.95;32.95;100220.15;1764200;80;21865;-65
2022/09/09 10:38:28;;;;;;;0.80;0.80;;;;;;;22.00;32.83;100213.10;1759551;80;21384;-65
2022/09/09 10:41:00;;;;;;;2.35;0.90;;;;;;;22.06;32.74;100213.09;1758342;80;21577;-65
2022/09/09 10:44:02;;;;;;;1.52;1.05;;;;;;;22.12;32.38;100212.08;1757029;80;21503;-65
2022/09/09 10:46:38;;;;;;;2.25;0.75;;;;;;;22.12;32.18;100210.74;1755929;80;21553;-65
2022/09/09 10:49:28;;;;;;;1.45;0.90;;;;;;;22.06;32.27;100208.58;1757773;80;21526;-65
2022/09/09 10:52:13;;;;;;;1.92;1.07;;;;;;;22.09;32.27;100208.30;1752463;80;21552;-65
2022/09/09 10:54:43;;;;;;;0.85;0.72;;;;;;;22.25;31.90;100209.74;1748610;80;21561;-67
2022/09/09 10:57:14;;;;;;;1.05;0.90;;;;;;;22.25;31.90;100209.74;1743773;80;21600;-66
2022/09/09 10:59:45;;;;;;;0.95;0.90;;;;;;;22.36;31.63;100211.07;1746988;80;21159;-64
2022/09/09 11:02:23;;;;;;;1.20;1.10;;;;;;;22.37;31.45;100217.27;1741483;80;21895;-64
2022/09/09 11:05:10;;;;;;;0.93;0.80;;;;;;;22.36;31.31;100223.13;1748721;80;21547;-64
2022/09/09 11:07:58;;;;;;;1.60;1.50;;;;;;;22.41;31.13;100214.69;1748775;80;21549;-64
2022/09/09 11:10:52;;;;;;;3.37;0.80;;;;;;;22.37;30.85;100223.47;1751711;80;21554;-69
2022/09/09 11:13:36;;;;;;;1.87;0.80;;;;;;;22.33;30.85;100220.69;1708039;82;21518;-65
2022/09/09 11:16:14;;;;;;;0.80;0.80;;;;;;;22.33;30.82;100212.66;1748012;80;21378;-65
2022/09/09 11:18:41;;;;;;;1.37;0.88;;;;;;;22.30;30.71;100220.94;1754697;80;21553;-64
2022/09/09 11:21:29;;;;;;;4.10;1.17;;;;;;;22.22;30.67;100216.68;1752225;80;21534;-64
2022/09/09 11:24:04;;;;;;;1.00;0.70;;;;;;;22.15;30.74;100211.84;1692252;83;21683;-66
2022/09/09 11:26:37;;;;;;;2.30;1.20;;;;;;;22.09;30.75;100218.17;1741930;80;21515;-64
2022/09/09 11:29:19;;;;;;;4.03;1.20;;;;;;;22.02;30.75;100214.29;1740414;80;21996;-64
2022/09/09 11:32:04;;;;;;;1.07;0.98;;;;;;;22.04;30.79;100212.33;1695174;82;21527;-64
2022/09/09 11:34:45;;;;;;;2.25;1.07;;;;;;;22.13;30.73;100213.80;1697032;83;21542;-64
2022/09/09 11:37:53;;;;;;;3.87;1.02;;;;;;;22.15;30.40;100214.52;1626118;85;21149;-65
2022/09/09 11:40:26;;;;;;;2.62;0.90;;;;;;;22.15;30.27;100214.52;1730655;80;20946;-64
2022/09/09 11:43:23;;;;;;;3.22;0.88;;;;;;;22.13;30.53;100204.89;1730704;80;22013;-64
2022/09/09 11:45:55;;;;;;;1.70;1.00;;;;;;;22.11;30.28;100212.20;1698478;80;21516;-64
2022/09/09 11:48:44;;;;;;;2.60;0.75;;;;;;;22.02;30.29;100197.76;1730207;81;20996;-64
2022/09/09 11:51:20;;;;;;;3.87;0.80;;;;;;;21.97;30.31;100201.30;1726250;80;21496;-65
2022/09/09 11:54:09;;;;;;;1.40;0.80;;;;;;;21.97;30.37;100195.94;1721287;81;21449;-64
2022/09/09 11:56:44;;;;;;;2.42;1.00;;;;;;;21.97;30.44;100192.77;1696899;82;22027;-63
2022/09/09 11:59:31;;;;;;;2.52;1.40;;;;;;;21.95;30.39;100188.52;1670249;84;21439;-65
2022/09/09 12:02:03;;;;;;;2.10;1.70;;;;;;;21.95;30.35;100187.19;1722330;80;22485;-66
2022/09/09 12:04:39;;;;;;;2.58;1.40;;;;;;;21.91;30.36;100186.58;1727770;80;21570;-65
2022/09/09 12:07:29;;;;;;;1.50;1.32;;;;;;;21.90;30.39;100182.69;1736844;81;21604;-60